Time;durP1;ratioP1;P1;durP2;ratioP2;P2;SDS_P1;SDS_P2;PMS_P1;PMS_P2;Temp;Humidity;BMP_temperature;BMP_pressure;BME280_temperature;BME280_humidity;BME280_pressure;Samples;Min_cycle;Max_cycle;Signal;HPM_P1;HPM_P2
2022/03/26 00:02:23;;;;;;;121.88;51.53;;;5.80;99.90;;;;;;5068937;28;20032;-82
2022/03/26 00:04:48;;;;;;;128.77;52.58;;;5.80;99.90;;;;;;5066976;28;20552;-82
2022/03/26 00:07:14;;;;;;;127.25;54.65;;;5.80;99.90;;;;;;5066703;28;20051;-81
2022/03/26 00:09:39;;;;;;;131.13;55.20;;;5.70;99.90;;;;;;5066659;28;20076;-82
2022/03/26 00:12:06;;;;;;;119.07;54.08;;;5.70;99.90;;;;;;5067907;28;20044;-82
2022/03/26 00:14:32;;;;;;;114.50;50.38;;;5.70;99.90;;;;;;5068773;28;20464;-82
2022/03/26 00:17:00;;;;;;;112.93;50.55;;;5.70;99.90;;;;;;5067232;28;20052;-82
2022/03/26 00:19:27;;;;;;;106.50;49.15;;;5.70;99.90;;;;;;5067098;28;20049;-81
2022/03/26 00:21:53;;;;;;;127.63;53.10;;;5.70;99.90;;;;;;5066698;28;20040;-81
2022/03/26 00:24:19;;;;;;;118.50;52.30;;;5.60;99.90;;;;;;5066534;28;20048;-81
2022/03/26 00:26:45;;;;;;;113.60;51.55;;;5.60;99.90;;;;;;5068045;28;20048;-81
2022/03/26 00:29:10;;;;;;;121.10;50.72;;;5.60;99.90;;;;;;5067540;28;20093;-82
2022/03/26 00:31:37;;;;;;;122.75;51.58;;;5.60;99.90;;;;;;5067083;28;20041;-81
2022/03/26 00:34:05;;;;;;;121.30;49.50;;;5.50;99.90;;;;;;5032564;28;20615;-81
2022/03/26 00:36:31;;;;;;;118.20;50.67;;;5.50;99.90;;;;;;5067161;28;20059;-81
2022/03/26 00:38:57;;;;;;;124.43;54.22;;;5.50;99.90;;;;;;5067604;28;20040;-81
2022/03/26 00:41:23;;;;;;;112.25;50.40;;;5.40;99.90;;;;;;5066407;28;20047;-81
2022/03/26 00:43:50;;;;;;;119.25;52.17;;;5.40;99.90;;;;;;5067595;28;20147;-82
2022/03/26 00:46:15;;;;;;;121.50;50.90;;;5.40;99.90;;;;;;5049230;28;20177;-82
2022/03/26 00:48:42;;;;;;;116.93;50.13;;;5.30;99.90;;;;;;5066208;28;20085;-82
2022/03/26 00:51:07;;;;;;;121.45;52.35;;;5.30;99.90;;;;;;5067018;28;20040;-83
2022/03/26 00:53:33;;;;;;;126.28;54.15;;;5.20;99.90;;;;;;5068365;28;20709;-81
2022/03/26 00:55:58;;;;;;;126.10;53.47;;;6.00;99.90;;;;;;5067174;28;20128;-82
2022/03/26 00:58:24;;;;;;;121.38;53.15;;;5.20;99.90;;;;;;5066074;28;20040;-81
2022/03/26 01:00:50;;;;;;;116.13;49.88;;;5.20;99.90;;;;;;5066851;28;20123;-82
2022/03/26 01:03:17;;;;;;;117.95;49.92;;;5.20;99.90;;;;;;5066851;28;20080;-82
2022/03/26 01:05:43;;;;;;;115.30;51.90;;;5.10;99.90;;;;;;5066443;28;20283;-81
2022/03/26 01:08:09;;;;;;;126.28;52.75;;;5.10;99.90;;;;;;5066431;28;20283;-81
2022/03/26 01:10:35;;;;;;;121.07;52.55;;;5.10;99.90;;;;;;5032655;28;20087;-82
2022/03/26 01:13:01;;;;;;;124.82;53.75;;;6.50;99.90;;;;;;5067062;28;20549;-81
2022/03/26 01:15:27;;;;;;;119.53;54.05;;;5.40;99.90;;;;;;5067042;28;20488;-81
2022/03/26 01:17:52;;;;;;;121.22;53.28;;;5.00;99.90;;;;;;5066857;28;20095;-81
2022/03/26 01:20:18;;;;;;;116.25;51.80;;;5.00;99.90;;;;;;5064933;28;20095;-81
2022/03/26 01:22:44;;;;;;;109.90;49.90;;;4.90;99.90;;;;;;5067368;28;20076;-82
2022/03/26 01:25:11;;;;;;;123.38;52.80;;;4.90;99.90;;;;;;5064713;28;20041;-82
2022/03/26 01:27:37;;;;;;;117.15;49.47;;;5.10;99.90;;;;;;5066092;28;20475;-81
2022/03/26 01:30:04;;;;;;;131.27;55.03;;;5.70;99.90;;;;;;5066469;28;20314;-82
2022/03/26 01:32:30;;;;;;;119.70;52.42;;;4.80;99.90;;;;;;5048480;28;20613;-82
2022/03/26 01:34:56;;;;;;;117.28;51.40;;;4.80;99.90;;;;;;5065089;28;20060;-82
2022/03/26 01:37:24;;;;;;;133.52;55.80;;;4.80;99.90;;;;;;5064961;28;20059;-82
2022/03/26 01:39:50;;;;;;;118.82;52.67;;;4.80;99.90;;;;;;5065320;28;20052;-81
2022/03/26 01:42:17;;;;;;;121.20;50.17;;;4.70;99.90;;;;;;5065621;28;20045;-82
2022/03/26 01:44:43;;;;;;;128.13;55.88;;;4.70;99.90;;;;;;5048938;28;20492;-82
2022/03/26 01:47:09;;;;;;;121.28;53.70;;;4.70;99.90;;;;;;5065591;28;20510;-82
2022/03/26 01:49:34;;;;;;;113.65;52.75;;;4.70;99.90;;;;;;5065161;28;20052;-82
2022/03/26 01:52:03;;;;;;;122.75;54.60;;;4.70;99.90;;;;;;5066309;28;20049;-82
2022/03/26 01:54:29;;;;;;;116.82;50.78;;;4.70;99.90;;;;;;5064860;28;20037;-82
2022/03/26 01:56:55;;;;;;;122.68;55.67;;;4.70;99.90;;;;;;5065602;28;20149;-81
2022/03/26 01:59:24;;;;;;;120.40;51.60;;;4.60;99.90;;;;;;5064567;28;20052;-82
2022/03/26 02:01:50;;;;;;;130.25;53.83;;;4.60;99.90;;;;;;5067948;28;20547;-82
2022/03/26 02:04:16;;;;;;;125.25;52.30;;;4.60;99.90;;;;;;5031805;28;20140;-82
2022/03/26 02:06:42;;;;;;;117.07;51.88;;;4.60;99.90;;;;;;5066202;28;20049;-81
2022/03/26 02:09:10;;;;;;;137.52;56.75;;;4.60;99.90;;;;;;5048243;28;20033;-82
2022/03/26 02:11:41;;;;;;;118.97;54.22;;;4.60;99.90;;;;;;5066021;28;20053;-82
2022/03/26 02:14:08;;;;;;;147.60;58.20;;;4.80;99.90;;;;;;5072852;28;20048;-82
2022/03/26 02:16:36;;;;;;;127.82;52.97;;;4.60;99.90;;;;;;5050122;28;20453;-81
2022/03/26 02:19:07;;;;;;;129.15;52.75;;;4.60;99.90;;;;;;5065263;28;20043;-82
2022/03/26 02:21:34;;;;;;;123.78;53.22;;;4.60;99.90;;;;;;5064729;28;20084;-81
2022/03/26 02:24:02;;;;;;;133.52;57.55;;;4.60;99.90;;;;;;5068430;28;20049;-83
2022/03/26 02:26:28;;;;;;;129.50;56.97;;;4.60;99.90;;;;;;5052139;28;20584;-81
2022/03/26 02:28:55;;;;;;;121.13;53.78;;;4.50;99.90;;;;;;5068408;28;20040;-81
2022/03/26 02:31:22;;;;;;;123.55;54.58;;;4.50;99.90;;;;;;5069053;28;20114;-81
2022/03/26 02:33:49;;;;;;;128.40;53.97;;;4.50;99.90;;;;;;5067683;28;20476;-82
2022/03/26 02:36:15;;;;;;;123.38;51.42;;;5.80;99.90;;;;;;5070590;28;20055;-81
2022/03/26 02:38:41;;;;;;;127.50;53.60;;;4.40;99.90;;;;;;5068615;28;20032;-81
2022/03/26 02:41:08;;;;;;;125.05;51.05;;;4.40;99.90;;;;;;5035018;28;20067;-82
2022/03/26 02:43:34;;;;;;;126.28;54.63;;;4.40;99.90;;;;;;5068403;28;20052;-82
2022/03/26 02:46:01;;;;;;;120.82;53.42;;;4.40;99.90;;;;;;5069142;28;20041;-82
2022/03/26 02:48:27;;;;;;;139.68;58.22;;;4.40;99.90;;;;;;5068685;28;20040;-82
2022/03/26 02:50:54;;;;;;;140.73;58.80;;;4.40;99.90;;;;;;5067722;28;20044;-81
2022/03/26 02:53:20;;;;;;;127.88;55.40;;;4.40;99.90;;;;;;5052121;28;20079;-81
2022/03/26 02:55:45;;;;;;;131.10;56.40;;;4.30;99.90;;;;;;5051411;28;20129;-81
2022/03/26 02:58:11;;;;;;;122.20;52.35;;;4.30;99.90;;;;;;5068320;28;20173;-81
2022/03/26 03:00:38;;;;;;;127.85;54.28;;;4.30;99.90;;;;;;5068166;28;20113;-81
2022/03/26 03:03:04;;;;;;;119.15;52.75;;;4.20;99.90;;;;;;5069001;28;20490;-81
2022/03/26 03:05:30;;;;;;;132.25;54.60;;;3.20;99.90;;;;;;5052196;28;20469;-81
2022/03/26 03:07:56;;;;;;;137.43;55.83;;;4.20;99.90;;;;;;5067282;28;20124;-81
2022/03/26 03:10:22;;;;;;;122.07;53.67;;;4.20;99.90;;;;;;5068274;28;20120;-81
2022/03/26 03:12:48;;;;;;;128.23;54.30;;;4.20;99.90;;;;;;5069664;28;20124;-81
2022/03/26 03:15:18;;;;;;;113.82;52.05;;;4.10;99.90;;;;;;5067832;28;20472;-81
2022/03/26 03:17:46;;;;;;;124.65;54.38;;;4.10;99.90;;;;;;5051837;28;20052;-82
2022/03/26 03:20:12;;;;;;;126.70;54.58;;;4.10;99.90;;;;;;5050443;28;20477;-81
2022/03/26 03:22:39;;;;;;;135.65;57.95;;;4.10;99.90;;;;;;5069625;28;20492;-82
2022/03/26 03:25:06;;;;;;;132.95;55.03;;;4.20;99.90;;;;;;5067007;28;20037;-82
2022/03/26 03:27:32;;;;;;;128.70;55.25;;;4.10;99.90;;;;;;5067696;28;20044;-83
2022/03/26 03:29:58;;;;;;;130.80;55.28;;;4.10;99.90;;;;;;5067718;28;20043;-81
2022/03/26 03:32:24;;;;;;;120.25;55.78;;;4.10;99.90;;;;;;5067326;28;20393;-81
2022/03/26 03:34:50;;;;;;;143.68;58.95;;;4.10;99.90;;;;;;5066387;28;20128;-81
2022/03/26 03:37:17;;;;;;;141.07;60.55;;;4.90;99.90;;;;;;5066957;28;20488;-82
2022/03/26 03:39:43;;;;;;;153.40;61.10;;;4.10;99.90;;;;;;5067894;28;20036;-81
2022/03/26 03:42:09;;;;;;;142.98;57.45;;;4.10;99.90;;;;;;5066680;28;20044;-82
2022/03/26 03:44:35;;;;;;;144.85;58.15;;;4.20;99.90;;;;;;5051149;28;20051;-81
2022/03/26 03:47:02;;;;;;;144.48;57.75;;;4.10;99.90;;;;;;5050412;28;20526;-82
2022/03/26 03:49:31;;;;;;;158.55;63.13;;;4.10;99.90;;;;;;5050344;28;20127;-81
2022/03/26 03:51:58;;;;;;;163.38;62.35;;;4.10;99.90;;;;;;5034991;28;20041;-81
2022/03/26 03:54:24;;;;;;;157.48;61.97;;;4.10;99.90;;;;;;5068070;28;20181;-82
2022/03/26 03:56:50;;;;;;;153.85;61.42;;;5.40;99.90;;;;;;5067773;28;20079;-80
2022/03/26 03:59:16;;;;;;;131.40;55.80;;;4.10;99.90;;;;;;5066693;28;20084;-81
2022/03/26 04:01:41;;;;;;;148.30;61.50;;;4.10;99.90;;;;;;5034382;28;20411;-82
2022/03/26 04:04:07;;;;;;;141.07;58.45;;;4.10;99.90;;;;;;5066765;28;20139;-82
2022/03/26 04:06:33;;;;;;;153.13;60.33;;;4.10;99.90;;;;;;5033661;28;20375;-81
2022/03/26 04:08:59;;;;;;;158.93;65.50;;;4.10;99.90;;;;;;5068250;28;20128;-82
2022/03/26 04:11:24;;;;;;;158.73;58.28;;;4.30;99.90;;;;;;5049309;28;20049;-82
2022/03/26 04:13:53;;;;;;;138.95;59.13;;;4.30;99.90;;;;;;5067256;28;20075;-81
2022/03/26 04:16:19;;;;;;;151.25;60.97;;;4.20;99.90;;;;;;5049578;28;20032;-82
2022/03/26 04:18:45;;;;;;;131.50;57.30;;;4.10;99.90;;;;;;5067192;28;20132;-81
2022/03/26 04:21:11;;;;;;;137.85;57.58;;;4.10;99.90;;;;;;5066678;28;20123;-82
2022/03/26 04:23:37;;;;;;;139.13;60.05;;;4.10;99.90;;;;;;5033344;28;20094;-81
2022/03/26 04:26:02;;;;;;;132.23;56.63;;;4.00;99.90;;;;;;5066432;28;20053;-82
2022/03/26 04:28:28;;;;;;;140.93;59.88;;;4.00;99.90;;;;;;5049412;28;20080;-82
2022/03/26 04:30:54;;;;;;;134.55;59.78;;;4.00;99.90;;;;;;5050371;28;20472;-81
2022/03/26 04:33:20;;;;;;;136.75;56.33;;;4.00;99.90;;;;;;5066089;28;20118;-82
2022/03/26 04:35:45;;;;;;;139.77;58.92;;;3.70;99.90;;;;;;5017288;28;20057;-81
2022/03/26 04:38:11;;;;;;;139.13;58.00;;;3.90;99.90;;;;;;5067650;28;20198;-81
2022/03/26 04:40:37;;;;;;;152.02;60.65;;;3.90;99.90;;;;;;5039166;28;20057;-82
2022/03/26 04:43:03;;;;;;;141.18;58.00;;;3.90;99.90;;;;;;5071566;28;20055;-82
2022/03/26 04:45:30;;;;;;;154.65;59.90;;;4.00;99.90;;;;;;5049386;28;20049;-82
2022/03/26 04:47:56;;;;;;;135.90;57.65;;;4.00;99.90;;;;;;5067921;28;20044;-82
2022/03/26 04:50:22;;;;;;;134.93;56.72;;;4.10;99.90;;;;;;5066925;28;20110;-82
2022/03/26 04:52:48;;;;;;;137.15;58.08;;;4.00;99.90;;;;;;5068085;28;20044;-82
2022/03/26 04:55:14;;;;;;;130.27;54.63;;;4.00;99.90;;;;;;5066104;28;20480;-82
2022/03/26 04:57:42;;;;;;;134.07;56.53;;;4.00;99.90;;;;;;5049321;28;20067;-82
2022/03/26 05:00:09;;;;;;;125.97;54.45;;;4.00;99.90;;;;;;5067392;28;20542;-82
2022/03/26 05:02:39;;;;;;;136.63;54.75;;;3.90;99.90;;;;;;5066855;28;20040;-82
2022/03/26 05:05:10;;;;;;;127.55;55.10;;;3.90;99.90;;;;;;5049911;28;20040;-81
2022/03/26 05:07:45;;;;;;;125.47;52.40;;;3.80;99.90;;;;;;5066955;28;20795;-81
2022/03/26 05:10:22;;;;;;;115.57;51.95;;;3.80;99.90;;;;;;5067455;28;20062;-82
2022/03/26 05:12:49;;;;;;;121.15;53.95;;;3.70;99.90;;;;;;5067303;28;20036;-82
2022/03/26 05:15:17;;;;;;;126.30;53.33;;;3.70;99.90;;;;;;5049184;28;20048;-83
2022/03/26 05:17:43;;;;;;;124.35;53.92;;;3.70;99.90;;;;;;5049449;28;20044;-82
2022/03/26 05:20:12;;;;;;;125.03;52.47;;;3.90;99.90;;;;;;5064713;28;20102;-82
2022/03/26 05:22:41;;;;;;;143.18;58.63;;;3.70;99.90;;;;;;5049231;28;20045;-82
2022/03/26 05:25:07;;;;;;;139.57;56.88;;;3.70;99.90;;;;;;5066387;28;20036;-81
2022/03/26 05:27:34;;;;;;;137.60;57.50;;;3.70;99.90;;;;;;5065418;28;20048;-81
2022/03/26 05:29:59;;;;;;;149.05;57.03;;;3.70;99.90;;;;;;5065561;28;20040;-81
2022/03/26 05:32:25;;;;;;;134.05;56.92;;;3.70;99.90;;;;;;5066283;28;20511;-81
2022/03/26 05:34:51;;;;;;;124.72;54.30;;;3.70;99.90;;;;;;5067003;28;20085;-82
2022/03/26 05:37:18;;;;;;;129.63;53.53;;;3.70;99.90;;;;;;5047825;28;20119;-82
2022/03/26 05:39:44;;;;;;;125.03;52.08;;;3.70;99.90;;;;;;5049206;28;20058;-82
2022/03/26 05:42:10;;;;;;;130.50;54.08;;;3.70;99.90;;;;;;5066844;28;20047;-82
2022/03/26 05:44:36;;;;;;;138.27;54.40;;;3.70;99.90;;;;;;5066249;28;20395;-82
2022/03/26 05:47:03;;;;;;;118.55;49.80;;;3.70;99.90;;;;;;5065318;28;20044;-83
2022/03/26 05:49:29;;;;;;;124.45;53.25;;;3.70;99.90;;;;;;5064704;28;20049;-81
2022/03/26 05:51:55;;;;;;;114.47;51.65;;;3.70;99.90;;;;;;5048655;28;20050;-81
2022/03/26 05:54:20;;;;;;;124.22;51.65;;;3.70;99.90;;;;;;5065978;28;20041;-82
2022/03/26 05:56:51;;;;;;;125.43;52.90;;;3.70;99.90;;;;;;5048862;28;20040;-82
2022/03/26 05:59:24;;;;;;;120.15;51.47;;;3.80;99.90;;;;;;5065807;28;20450;-82
2022/03/26 06:01:51;;;;;;;115.05;50.92;;;3.80;99.90;;;;;;5050381;28;20045;-82
2022/03/26 06:04:17;;;;;;;127.30;51.67;;;3.90;99.90;;;;;;5069623;28;20045;-83
2022/03/26 06:06:43;;;;;;;122.75;51.42;;;3.50;99.90;;;;;;5072108;28;20041;-82
2022/03/26 06:09:10;;;;;;;122.53;50.25;;;4.00;99.90;;;;;;5067738;28;20507;-82
2022/03/26 06:11:36;;;;;;;121.40;51.97;;;4.10;99.90;;;;;;5065673;28;20040;-82
2022/03/26 06:14:02;;;;;;;122.75;52.10;;;4.20;99.90;;;;;;5066616;28;20043;-81
2022/03/26 06:16:29;;;;;;;128.38;53.97;;;4.30;99.90;;;;;;5064555;28;20095;-81
2022/03/26 06:18:54;;;;;;;123.53;52.60;;;4.40;99.90;;;;;;5065938;28;20148;-81
2022/03/26 06:21:20;;;;;;;135.15;52.67;;;4.50;99.90;;;;;;5064795;28;20551;-82
2022/03/26 06:23:46;;;;;;;137.88;55.40;;;4.70;99.90;;;;;;5064358;28;20041;-81
2022/03/26 06:26:12;;;;;;;142.52;54.35;;;4.80;99.90;;;;;;5066427;28;20084;-82
2022/03/26 06:28:38;;;;;;;139.30;54.72;;;5.00;99.90;;;;;;5064257;28;20180;-82
2022/03/26 06:31:04;;;;;;;136.00;55.28;;;5.20;99.90;;;;;;5048634;28;20521;-82
2022/03/26 06:33:30;;;;;;;128.90;53.30;;;5.30;99.90;;;;;;5065085;28;20394;-82
2022/03/26 06:35:56;;;;;;;123.28;52.85;;;5.50;99.90;;;;;;5064128;28;20403;-81
2022/03/26 06:38:22;;;;;;;118.88;52.47;;;5.60;99.90;;;;;;5065163;28;20040;-82
2022/03/26 06:40:48;;;;;;;123.93;50.95;;;5.70;99.90;;;;;;5066334;28;20063;-83
2022/03/26 06:43:14;;;;;;;121.70;51.42;;;5.80;99.90;;;;;;5066714;28;20075;-85
2022/03/26 06:45:40;;;;;;;115.13;50.55;;;5.90;99.90;;;;;;5066077;28;20059;-81
2022/03/26 06:48:08;;;;;;;114.28;50.45;;;7.40;99.90;;;;;;5065846;28;20041;-82
2022/03/26 06:50:49;;;;;;;117.22;51.55;;;6.20;99.90;;;;;;5048388;28;20049;-81
2022/03/26 06:53:15;;;;;;;118.63;51.15;;;6.40;99.90;;;;;;5048803;28;20044;-80
2022/03/26 06:55:41;;;;;;;104.63;50.28;;;6.50;99.90;;;;;;5032599;28;20127;-81
2022/03/26 06:58:07;;;;;;;118.60;49.47;;;6.60;99.90;;;;;;5048503;28;20037;-87
2022/03/26 07:00:32;;;;;;;110.05;49.70;;;6.80;99.90;;;;;;5033141;28;20400;-82
2022/03/26 07:02:58;;;;;;;116.30;49.35;;;6.90;99.90;;;;;;5066590;28;20041;-80
2022/03/26 07:05:24;;;;;;;103.95;47.25;;;7.10;99.90;;;;;;5067495;28;20041;-80
2022/03/26 07:07:50;;;;;;;110.85;47.45;;;7.20;99.90;;;;;;5074352;28;20044;-82
2022/03/26 07:10:16;;;;;;;107.78;47.47;;;7.40;99.90;;;;;;5070910;28;20048;-81
2022/03/26 07:12:42;;;;;;;107.03;46.03;;;7.50;99.90;;;;;;5068866;28;20049;-81
2022/03/26 07:15:08;;;;;;;104.25;47.70;;;7.60;99.90;;;;;;5069594;28;20051;-81
2022/03/26 07:17:38;;;;;;;101.47;45.13;;;7.80;99.90;;;;;;5069048;28;20056;-81
2022/03/26 07:20:05;;;;;;;97.57;44.78;;;7.90;99.90;;;;;;5052047;28;20045;-81
2022/03/26 07:22:31;;;;;;;96.22;46.25;;;8.00;99.90;;;;;;5069119;28;20084;-82
2022/03/26 07:24:56;;;;;;;93.90;45.42;;;8.10;99.90;;;;;;5069612;28;20052;-82
2022/03/26 07:27:22;;;;;;;92.43;44.28;;;8.20;99.90;;;;;;5070336;28;20409;-82
2022/03/26 07:29:48;;;;;;;94.18;42.95;;;8.40;99.90;;;;;;5069974;28;20036;-81
2022/03/26 07:32:14;;;;;;;93.43;44.00;;;8.50;99.90;;;;;;5072145;28;20052;-80
2022/03/26 07:34:40;;;;;;;91.85;44.05;;;8.60;99.90;;;;;;5077551;28;20048;-81
2022/03/26 07:37:06;;;;;;;97.65;41.78;;;8.70;99.90;;;;;;5087551;28;20115;-81
2022/03/26 07:39:32;;;;;;;85.03;40.42;;;8.90;99.90;;;;;;5077326;28;20037;-81
2022/03/26 07:41:58;;;;;;;84.88;40.88;;;9.00;99.90;;;;;;5071364;28;20400;-81
2022/03/26 07:44:24;;;;;;;77.75;40.25;;;9.10;99.90;;;;;;5035087;28;20143;-81
2022/03/26 07:46:49;;;;;;;85.28;41.63;;;9.30;99.90;;;;;;5051171;28;20041;-81
2022/03/26 07:49:15;;;;;;;78.25;39.35;;;9.80;99.90;;;;;;5067009;28;20122;-80
2022/03/26 07:51:41;;;;;;;79.18;38.60;;;9.50;99.90;;;;;;5069274;28;20094;-82
2022/03/26 07:54:08;;;;;;;72.68;39.63;;;11.00;99.90;;;;;;5068434;28;20399;-82
2022/03/26 07:56:33;;;;;;;82.60;41.25;;;9.70;99.90;;;;;;5051643;28;20052;-85
2022/03/26 07:58:59;;;;;;;79.75;40.58;;;9.80;99.90;;;;;;5017253;28;20036;-81
2022/03/26 08:01:25;;;;;;;73.40;38.83;;;9.90;99.90;;;;;;5067398;28;20087;-81
2022/03/26 08:03:54;;;;;;;77.13;40.22;;;10.00;99.90;;;;;;5068907;28;20051;-81
2022/03/26 08:06:23;;;;;;;78.53;39.25;;;10.10;99.90;;;;;;5050876;28;20042;-82
2022/03/26 08:08:49;;;;;;;80.80;38.53;;;10.30;99.90;;;;;;5067924;28;20040;-82
2022/03/26 08:11:15;;;;;;;73.78;36.42;;;10.50;99.90;;;;;;5066741;28;20584;-81
2022/03/26 08:13:41;;;;;;;71.25;36.88;;;10.60;99.90;;;;;;5067965;28;20119;-81
2022/03/26 08:16:08;;;;;;;61.33;34.22;;;10.70;99.90;;;;;;5066721;28;20488;-81
2022/03/26 08:18:34;;;;;;;70.65;37.45;;;10.80;99.90;;;;;;5033964;28;20287;-85
2022/03/26 08:21:00;;;;;;;64.53;37.35;;;11.00;99.90;;;;;;5050063;28;20048;-80
2022/03/26 08:23:26;;;;;;;64.95;34.58;;;11.10;99.90;;;;;;5067696;28;20163;-81
2022/03/26 08:28:36;;;;;;;71.07;38.50;;;11.40;99.90;;;;;;5066398;28;20676;-81
2022/03/26 08:31:02;;;;;;;65.63;35.67;;;11.60;99.90;;;;;;5033624;28;20128;-80
2022/03/26 08:33:28;;;;;;;59.88;34.40;;;11.70;99.90;;;;;;5068012;28;20170;-81
2022/03/26 08:35:53;;;;;;;66.57;34.80;;;11.80;99.90;;;;;;5066002;28;20052;-80
2022/03/26 08:38:19;;;;;;;57.53;33.55;;;12.00;99.90;;;;;;5068327;28;20052;-80
2022/03/26 08:40:45;;;;;;;69.80;34.10;;;12.10;99.90;;;;;;5067288;28;20071;-81
2022/03/26 08:43:13;;;;;;;59.40;32.20;;;12.30;99.90;;;;;;5066831;28;20501;-80
2022/03/26 08:45:40;;;;;;;58.95;33.35;;;12.40;99.90;;;;;;5066897;28;20059;-81
2022/03/26 08:48:06;;;;;;;61.70;33.83;;;12.60;99.90;;;;;;5068280;28;20141;-82
2022/03/26 08:50:32;;;;;;;56.22;31.52;;;12.70;99.90;;;;;;5066887;28;20032;-83
2022/03/26 08:52:58;;;;;;;52.17;32.08;;;12.80;99.90;;;;;;5066295;28;20041;-81
2022/03/26 08:55:25;;;;;;;54.47;31.42;;;13.00;99.90;;;;;;5066431;28;20036;-81
2022/03/26 08:57:51;;;;;;;53.28;30.42;;;13.10;99.90;;;;;;5066392;28;20040;-82
2022/03/26 09:00:18;;;;;;;51.90;28.92;;;13.30;99.90;;;;;;5068544;28;20407;-80
2022/03/26 09:02:44;;;;;;;47.95;29.40;;;13.40;99.90;;;;;;5066196;28;20049;-83
2022/03/26 09:05:13;;;;;;;49.88;27.20;;;13.60;99.90;;;;;;5051674;28;20036;-83
2022/03/26 09:07:39;;;;;;;45.67;27.60;;;13.90;99.90;;;;;;5037422;28;20040;-81
2022/03/26 09:10:06;;;;;;;50.17;27.30;;;14.10;99.90;;;;;;5043799;28;20098;-81
2022/03/26 09:12:32;;;;;;;44.78;27.40;;;14.30;99.90;;;;;;5076636;28;20041;-83
2022/03/26 09:14:59;;;;;;;39.60;22.98;;;14.10;99.90;;;;;;5068114;28;20051;-82
2022/03/26 09:17:25;;;;;;;41.90;24.45;;;14.70;99.90;;;;;;5067177;28;20048;-82
2022/03/26 09:19:51;;;;;;;32.83;20.27;;;14.90;99.90;;;;;;5048020;28;20044;-82
2022/03/26 09:22:17;;;;;;;31.35;20.52;;;15.10;99.90;;;;;;5049772;28;20124;-83
2022/03/26 09:24:42;;;;;;;31.63;18.88;;;15.20;99.90;;;;;;5065315;28;20148;-83
2022/03/26 09:27:09;;;;;;;31.20;19.02;;;15.30;99.90;;;;;;5032144;28;20055;-82
2022/03/26 09:29:36;;;;;;;32.08;17.48;;;15.40;99.90;;;;;;5067050;28;20041;-82
2022/03/26 09:32:02;;;;;;;26.52;16.17;;;15.50;99.90;;;;;;5066393;28;20051;-82
2022/03/26 09:34:28;;;;;;;23.15;13.85;;;15.70;99.90;;;;;;5067589;28;20055;-82
2022/03/26 09:36:54;;;;;;;24.15;15.48;;;15.80;99.90;;;;;;5031762;28;20135;-82
2022/03/26 09:39:20;;;;;;;25.23;14.80;;;15.80;99.90;;;;;;5067549;28;20070;-83
2022/03/26 09:41:49;;;;;;;25.05;15.15;;;15.90;99.90;;;;;;5065546;28;20045;-82
2022/03/26 09:44:15;;;;;;;24.40;14.48;;;16.10;99.90;;;;;;5048091;28;20056;-82
2022/03/26 09:46:41;;;;;;;23.70;14.98;;;16.30;99.90;;;;;;5049587;28;20048;-83
2022/03/26 09:49:09;;;;;;;21.75;13.13;;;16.50;99.90;;;;;;5065788;28;20044;-82
2022/03/26 09:51:35;;;;;;;21.70;12.80;;;16.50;99.90;;;;;;5067696;28;20044;-81
2022/03/26 09:54:01;;;;;;;15.73;10.20;;;16.70;99.90;;;;;;5064121;28;20048;-82
2022/03/26 09:56:30;;;;;;;18.75;10.80;;;16.80;99.50;;;;;;5067163;28;20048;-81
2022/03/26 09:58:58;;;;;;;16.05;10.43;;;16.90;98.60;;;;;;5066488;28;20048;-81
2022/03/26 10:01:28;;;;;;;11.80;7.50;;;17.00;97.80;;;;;;5066620;28;20221;-81
2022/03/26 10:04:11;;;;;;;13.25;8.05;;;17.10;96.80;;;;;;5065670;28;20132;-83
2022/03/26 10:06:45;;;;;;;13.80;7.75;;;17.10;91.90;;;;;;5065573;28;20046;-82
2022/03/26 10:09:10;;;;;;;11.40;7.55;;;17.20;94.90;;;;;;5065160;28;20087;-82
2022/03/26 10:11:36;;;;;;;13.30;8.85;;;17.40;93.90;;;;;;5065864;28;20415;-82
2022/03/26 10:14:02;;;;;;;11.73;7.63;;;17.60;92.80;;;;;;5066280;28;20400;-82
2022/03/26 10:16:28;;;;;;;14.60;7.90;;;17.60;90.80;;;;;;5065935;28;20349;-83
2022/03/26 10:18:59;;;;;;;13.00;8.93;;;17.60;90.10;;;;;;5047984;28;20396;-82
2022/03/26 10:21:25;;;;;;;12.57;8.85;;;17.60;87.60;;;;;;5065947;28;20051;-82
2022/03/26 10:23:52;;;;;;;15.77;8.23;;;17.70;88.00;;;;;;5064862;28;20141;-83
2022/03/26 10:26:21;;;;;;;12.32;7.43;;;17.60;84.60;;;;;;5066615;28;20106;-82
2022/03/26 10:29:05;;;;;;;14.10;7.90;;;17.60;85.00;;;;;;5065736;28;20428;-83
2022/03/26 10:34:19;;;;;;;11.93;6.82;;;17.70;85.00;;;;;;5067618;28;20122;-82
2022/03/26 10:37:05;;;;;;;10.45;5.65;;;17.70;82.70;;;;;;5065402;28;20146;-82
2022/03/26 10:39:31;;;;;;;10.00;5.63;;;17.60;76.00;;;;;;5049094;28;20071;-82
2022/03/26 10:41:57;;;;;;;14.20;5.65;;;17.60;80.10;;;;;;5070845;28;20044;-81
2022/03/26 10:44:26;;;;;;;8.18;4.88;;;17.60;80.00;;;;;;5076314;28;20544;-81
2022/03/26 10:46:54;;;;;;;7.28;4.70;;;17.70;79.20;;;;;;5073021;28;20045;-82
2022/03/26 10:49:30;;;;;;;8.07;4.53;;;17.70;79.00;;;;;;5051393;28;20048;-80
2022/03/26 10:51:57;;;;;;;9.20;4.57;;;17.80;74.70;;;;;;5070594;28;20098;-82
2022/03/26 10:54:31;;;;;;;7.20;4.40;;;17.80;76.30;;;;;;5069806;28;20190;-82
2022/03/26 10:56:59;;;;;;;7.93;4.85;;;17.80;73.90;;;;;;5068298;28;20048;-82
2022/03/26 10:59:26;;;;;;;6.55;3.83;;;17.80;75.20;;;;;;5069322;28;20048;-82
2022/03/26 11:01:52;;;;;;;7.03;4.43;;;17.80;75.90;;;;;;5069352;28;20048;-83
2022/03/26 11:04:19;;;;;;;5.15;3.50;;;17.70;74.90;;;;;;5069475;28;20059;-82
2022/03/26 11:06:47;;;;;;;5.60;2.63;;;17.70;74.90;;;;;;5051123;28;20040;-82
2022/03/26 11:09:15;;;;;;;5.47;3.03;;;17.70;74.70;;;;;;5069037;28;20050;-82
2022/03/26 11:11:41;;;;;;;6.40;2.85;;;17.80;74.50;;;;;;5068113;28;20045;-82
2022/03/26 11:14:30;;;;;;;4.00;3.00;;;18.00;74.10;;;;;;5068272;28;20737;-82
2022/03/26 11:17:35;;;;;;;4.97;3.22;;;18.00;72.10;;;;;;5068911;28;20068;-82
2022/03/26 11:20:09;;;;;;;7.32;2.85;;;17.90;71.10;;;;;;5067740;28;20359;-82
2022/03/26 11:23:05;;;;;;;6.50;2.20;;;18.00;74.80;;;;;;5067877;28;20058;-82
2022/03/26 11:25:43;;;;;;;3.40;2.35;;;18.10;71.10;;;;;;5069063;28;20036;-82
2022/03/26 11:28:15;;;;;;;5.22;2.55;;;18.10;69.90;;;;;;5068704;28;20080;-82
2022/03/26 11:30:53;;;;;;;3.72;2.00;;;18.00;72.10;;;;;;5068275;28;20094;-80
2022/03/26 11:33:20;;;;;;;3.72;2.10;;;18.10;69.70;;;;;;5069439;28;20094;-82
2022/03/26 11:35:50;;;;;;;2.53;2.05;;;18.10;71.60;;;;;;5067003;28;20118;-82
2022/03/26 11:38:16;;;;;;;2.85;2.03;;;18.00;69.50;;;;;;5070203;28;20056;-82
2022/03/26 11:41:05;;;;;;;2.88;1.58;;;18.10;70.90;;;;;;5068605;28;20032;-81
2022/03/26 11:43:43;;;;;;;4.32;2.30;;;18.00;68.10;;;;;;5068105;28;20044;-82
2022/03/26 11:50:41;;;;;;;3.85;2.55;;;18.50;67.40;;;;;;5066915;28;20067;-82
2022/03/26 11:52:33;;;;;;;4.38;2.60;;;18.70;66.90;;;;;;5067781;28;20048;-82
2022/03/26 11:55:11;;;;;;;4.10;2.50;;;18.60;68.40;;;;;;5067882;28;20051;-82
2022/03/26 11:57:36;;;;;;;3.53;2.40;;;18.60;66.60;;;;;;5069006;28;20052;-81
2022/03/26 12:00:07;;;;;;;3.78;2.67;;;18.50;68.90;;;;;;5074719;28;20049;-83
2022/03/26 12:02:37;;;;;;;4.60;2.78;;;18.30;70.40;;;;;;5066963;28;20101;-81
2022/03/26 12:08:32;;;;;;;5.20;2.60;;;18.00;71.60;;;;;;5067737;28;20056;-82
2022/03/26 12:10:58;;;;;;;5.32;2.47;;;17.80;72.70;;;;;;5068229;28;20123;-80
2022/03/26 12:13:23;;;;;;;4.80;2.58;;;17.80;75.50;;;;;;5067374;28;20119;-79
2022/03/26 12:16:06;;;;;;;6.13;2.05;;;17.60;76.60;;;;;;5070946;28;20160;-81
2022/03/26 12:18:35;;;;;;;6.67;2.20;;;17.40;76.50;;;;;;5070022;28;20496;-81
2022/03/26 12:21:23;;;;;;;6.28;3.38;;;17.20;80.10;;;;;;5069097;28;20405;-82
2022/03/26 12:23:50;;;;;;;4.07;2.25;;;17.00;80.20;;;;;;5032911;28;20074;-86
2022/03/26 12:26:16;;;;;;;4.85;2.58;;;16.90;83.80;;;;;;5051170;28;20416;-81
2022/03/26 12:28:43;;;;;;;6.35;2.95;;;16.90;85.40;;;;;;5066649;28;20048;-82
2022/03/26 12:31:11;;;;;;;4.75;2.80;;;17.10;84.60;;;;;;5066959;28;20036;-83
2022/03/26 12:33:39;;;;;;;4.50;2.22;;;17.10;83.60;;;;;;5069140;28;20490;-84
2022/03/26 12:36:06;;;;;;;5.35;3.40;;;17.20;82.40;;;;;;5065155;28;20496;-83
2022/03/26 12:38:31;;;;;;;5.63;3.50;;;17.10;82.40;;;;;;5068036;28;20131;-82
2022/03/26 12:41:00;;;;;;;5.22;3.08;;;17.00;83.50;;;;;;5067531;28;20076;-82
2022/03/26 12:43:27;;;;;;;7.97;3.80;;;17.00;84.30;;;;;;5050578;28;20173;-82
2022/03/26 12:45:57;;;;;;;4.35;2.53;;;17.00;84.30;;;;;;5067359;28;20044;-82